createdAt,value
2018-03-24T00:01:07.095Z,56.77
2018-03-24T00:03:33.308Z,53.80
2018-03-24T00:06:00.249Z,47.67
2018-03-24T00:08:27.204Z,49.07
2018-03-24T00:10:54.136Z,43.73
2018-03-24T00:13:21.100Z,43.33
2018-03-24T00:15:47.296Z,57.23
2018-03-24T00:18:13.517Z,51.97
2018-03-24T00:20:39.709Z,52.90
2018-03-24T00:23:06.164Z,53.57
2018-03-24T00:25:32.376Z,59.97
2018-03-24T00:27:58.564Z,53.50
2018-03-24T00:30:25.524Z,48.27
2018-03-24T00:32:51.761Z,50.07
2018-03-24T00:35:17.964Z,54.57
2018-03-24T00:37:44.910Z,52.17
2018-03-24T00:40:11.868Z,42.47
2018-03-24T00:42:38.809Z,39.73
2018-03-24T00:45:05.789Z,46.10
2018-03-24T00:47:31.988Z,53.17
2018-03-24T00:49:58.943Z,46.77
2018-03-24T00:52:25.165Z,61.97
2018-03-24T00:54:51.557Z,45.00
2018-03-24T00:57:17.781Z,71.43
2018-03-24T00:59:44.297Z,78.40
2018-03-24T01:02:10.508Z,71.10
2018-03-24T01:04:36.696Z,82.83
2018-03-24T01:07:02.921Z,100.60
2018-03-24T01:09:29.116Z,92.53
2018-03-24T01:11:55.341Z,97.20
2018-03-24T01:14:21.580Z,94.07
2018-03-24T01:16:47.772Z,79.77
2018-03-24T01:19:13.966Z,87.13
2018-03-24T01:21:40.560Z,82.80
2018-03-24T01:24:06.752Z,84.33
2018-03-24T01:26:33.705Z,77.60
2018-03-24T01:28:59.936Z,99.50
2018-03-24T01:31:26.157Z,90.77
2018-03-24T01:33:53.108Z,92.70
2018-03-24T01:36:20.061Z,88.87
2018-03-24T01:38:46.244Z,94.80
2018-03-24T01:41:12.460Z,82.00
2018-03-24T01:43:38.676Z,83.43
2018-03-24T01:46:04.906Z,86.57
2018-03-24T01:48:31.136Z,79.67
2018-03-24T01:50:57.328Z,63.50
2018-03-24T01:53:36.833Z,87.40
2018-03-24T01:56:03.037Z,66.97
2018-03-24T01:58:29.252Z,70.53
2018-03-24T02:00:55.439Z,68.50
2018-03-24T02:03:22.392Z,72.27
2018-03-24T02:05:49.329Z,64.27
2018-03-24T02:08:16.301Z,58.23
2018-03-24T02:10:42.543Z,51.60
2018-03-24T02:13:08.788Z,59.23
2018-03-24T02:15:35.447Z,55.47
2018-03-24T02:18:03.005Z,51.67
2018-03-24T02:20:30.769Z,57.30
2018-03-24T02:22:58.945Z,62.20
2018-03-24T02:25:25.177Z,56.97
2018-03-24T02:27:51.401Z,68.80
2018-03-24T02:30:17.616Z,63.73
2018-03-24T02:32:43.956Z,48.93
2018-03-24T02:35:10.929Z,59.77
2018-03-24T02:37:37.124Z,56.50
2018-03-24T02:40:03.340Z,62.87
2018-03-24T02:42:29.549Z,57.77
2018-03-24T02:44:55.763Z,61.47
2018-03-24T02:47:22.704Z,56.50
2018-03-24T02:49:49.665Z,56.80
2018-03-24T02:52:15.861Z,66.40
2018-03-24T02:54:42.355Z,77.80
2018-03-24T02:57:08.541Z,73.80
2018-03-24T02:59:35.496Z,72.87
2018-03-24T03:02:02.452Z,92.10
2018-03-24T03:04:28.669Z,89.70
2018-03-24T03:06:55.630Z,106.87
2018-03-24T03:09:21.840Z,137.43
2018-03-24T03:11:48.881Z,114.63
2018-03-24T03:14:15.132Z,110.07
2018-03-24T03:16:42.064Z,104.07
2018-03-24T03:19:09.040Z,114.77
2018-03-24T03:21:47.701Z,102.37
2018-03-24T03:24:14.000Z,79.07
2018-03-24T03:26:40.201Z,98.73
2018-03-24T03:29:07.198Z,93.90
2018-03-24T03:31:33.418Z,103.73
2018-03-24T03:33:59.600Z,88.07
2018-03-24T03:36:26.558Z,98.70
2018-03-24T03:38:52.752Z,88.40
2018-03-24T03:41:18.968Z,81.40
2018-03-24T03:43:45.164Z,100.03
2018-03-24T03:46:11.405Z,97.80
2018-03-24T03:48:37.597Z,100.27
2018-03-24T03:51:03.824Z,125.03
2018-03-24T03:53:30.016Z,108.80
2018-03-24T03:55:56.236Z,103.90
2018-03-24T03:58:22.437Z,97.40
2018-03-24T04:00:48.676Z,114.37
2018-03-24T04:03:14.868Z,108.17
2018-03-24T04:05:41.096Z,110.20
2018-03-24T04:08:08.030Z,125.67
2018-03-24T04:10:34.993Z,131.87
2018-03-24T04:13:01.193Z,133.97
2018-03-24T04:15:27.455Z,122.13
2018-03-24T04:17:53.648Z,126.40
2018-03-24T04:20:19.844Z,130.90
2018-03-24T04:22:46.080Z,148.70
2018-03-24T04:25:12.276Z,121.33
2018-03-24T04:27:38.492Z,157.33
2018-03-24T04:30:05.433Z,144.80
2018-03-24T04:32:32.401Z,160.57
2018-03-24T04:34:58.594Z,142.23
2018-03-24T04:37:25.560Z,140.17
2018-03-24T04:39:51.756Z,150.13
2018-03-24T04:42:17.998Z,128.97
2018-03-24T04:44:44.949Z,137.57
2018-03-24T04:47:11.908Z,140.73
2018-03-24T04:49:38.100Z,126.97
2018-03-24T04:52:04.342Z,132.60
2018-03-24T04:54:31.276Z,129.27
2018-03-24T04:56:57.502Z,142.07
2018-03-24T04:59:23.701Z,144.17
2018-03-24T05:01:49.916Z,132.80
2018-03-24T05:04:16.108Z,140.33
2018-03-24T05:06:43.065Z,179.07
2018-03-24T05:09:09.997Z,175.37
2018-03-24T05:11:36.228Z,148.13
2018-03-24T05:14:03.208Z,173.97
2018-03-24T05:16:29.407Z,152.13
2018-03-24T05:18:56.369Z,147.53
2018-03-24T05:21:23.304Z,159.57
2018-03-24T05:23:50.282Z,144.47
2018-03-24T05:26:16.480Z,143.50
2018-03-24T05:28:43.464Z,131.50
2018-03-24T05:31:09.652Z,148.23
2018-03-24T05:33:36.608Z,130.90
2018-03-24T05:36:03.531Z,121.97
2018-03-24T05:38:29.745Z,130.17
2018-03-24T05:40:55.943Z,100.00
2018-03-24T05:43:22.190Z,105.33
2018-03-24T05:45:48.387Z,101.67
2018-03-24T05:48:14.604Z,119.10
2018-03-24T05:50:40.788Z,121.30
2018-03-24T05:53:07.018Z,115.10
2018-03-24T05:55:34.144Z,104.17
2018-03-24T05:58:00.336Z,104.17
2018-03-24T06:00:27.314Z,104.97
2018-03-24T06:02:53.538Z,106.40
2018-03-24T06:05:19.736Z,95.13
2018-03-24T06:07:45.958Z,80.93
2018-03-24T06:10:12.901Z,88.73
2018-03-24T06:12:39.125Z,76.87
2018-03-24T06:15:06.075Z,78.53
2018-03-24T06:17:33.005Z,75.30
2018-03-24T06:19:59.497Z,65.17
2018-03-24T06:22:25.716Z,65.93
2018-03-24T06:24:51.925Z,58.50
2018-03-24T06:27:18.863Z,73.57
2018-03-24T06:29:45.860Z,77.50
2018-03-24T06:32:12.065Z,76.20
2018-03-24T06:34:38.276Z,75.17
2018-03-24T06:37:05.249Z,69.67
2018-03-24T06:39:31.436Z,61.70
2018-03-24T06:41:58.384Z,70.33
2018-03-24T06:44:25.308Z,74.50
2018-03-24T06:46:51.589Z,74.60
2018-03-24T06:49:18.537Z,71.53
2018-03-24T06:51:44.901Z,85.57
2018-03-24T06:54:11.101Z,76.03
2018-03-24T06:56:37.332Z,71.03
2018-03-24T06:59:03.545Z,68.57
2018-03-24T07:01:29.739Z,63.83
2018-03-24T07:03:55.972Z,75.13
2018-03-24T07:06:22.177Z,70.77
2018-03-24T07:08:48.396Z,75.10
2018-03-24T07:11:14.584Z,65.73
2018-03-24T07:13:41.537Z,66.40
2018-03-24T07:16:08.051Z,92.27
2018-03-24T07:18:35.025Z,65.53
2018-03-24T07:21:01.221Z,68.80
2018-03-24T07:23:28.403Z,61.37
2018-03-24T07:25:54.601Z,63.37
2018-03-24T07:28:21.536Z,66.47
2018-03-24T07:30:47.762Z,65.47
2018-03-24T07:33:13.955Z,61.50
2018-03-24T07:35:40.182Z,66.10
2018-03-24T07:38:06.428Z,62.90
2018-03-24T07:40:32.622Z,64.10
2018-03-24T07:42:58.812Z,61.60
2018-03-24T07:45:25.776Z,57.63
2018-03-24T07:47:52.712Z,63.77
2018-03-24T07:50:19.731Z,64.97
2018-03-24T07:52:45.920Z,73.90
2018-03-24T07:55:12.132Z,71.27
2018-03-24T07:57:38.347Z,70.30
2018-03-24T08:00:05.318Z,73.23
2018-03-24T08:02:31.512Z,65.53
2018-03-24T08:04:57.729Z,61.90
2018-03-24T08:07:23.934Z,59.93
2018-03-24T08:09:50.178Z,58.90
2018-03-24T08:12:16.745Z,55.13
2018-03-24T08:14:43.688Z,59.37
2018-03-24T08:17:10.646Z,44.80
2018-03-24T08:19:37.580Z,51.33
2018-03-24T08:22:04.601Z,48.77
2018-03-24T08:24:30.863Z,46.20
2018-03-24T08:26:57.092Z,50.40
2018-03-24T08:29:24.016Z,41.20
2018-03-24T08:31:51.708Z,45.13
2018-03-24T08:34:18.648Z,44.07
2018-03-24T08:36:45.609Z,48.13
2018-03-24T08:39:12.541Z,45.93
2018-03-24T08:41:39.500Z,47.57
2018-03-24T08:44:05.699Z,46.80
2018-03-24T08:46:32.662Z,46.60
2018-03-24T08:48:59.600Z,48.87
2018-03-24T08:51:25.808Z,48.50
2018-03-24T08:53:52.000Z,43.80
2018-03-24T08:56:18.248Z,43.20
2018-03-24T08:58:44.441Z,43.63
2018-03-24T09:01:10.713Z,44.93
2018-03-24T09:03:36.925Z,39.40
2018-03-24T09:06:03.112Z,40.50
2018-03-24T09:08:30.077Z,37.20
2018-03-24T09:10:56.275Z,42.83
2018-03-24T09:13:22.505Z,41.83
2018-03-24T09:15:49.456Z,38.97
2018-03-24T09:18:16.458Z,42.97
2018-03-24T09:20:42.654Z,45.77
2018-03-24T09:23:08.876Z,43.50
2018-03-24T09:25:35.093Z,43.67
2018-03-24T09:28:02.058Z,42.40
2018-03-24T09:30:28.277Z,42.67
2018-03-24T09:32:55.258Z,34.10
2018-03-24T09:35:21.453Z,35.07
2018-03-24T09:37:47.648Z,27.37
2018-03-24T09:40:13.860Z,37.07
2018-03-24T09:42:40.052Z,40.50
2018-03-24T09:45:06.266Z,36.70
2018-03-24T09:47:33.191Z,35.83
2018-03-24T09:49:59.428Z,31.50
2018-03-24T09:52:27.123Z,27.80
2018-03-24T09:54:53.343Z,33.85
2018-03-24T09:57:19.536Z,34.93
2018-03-24T09:59:45.756Z,34.07
2018-03-24T10:02:13.503Z,35.23
2018-03-24T10:04:39.737Z,33.07
2018-03-24T10:07:05.945Z,35.27
2018-03-24T10:09:32.154Z,33.63
2018-03-24T10:11:58.412Z,38.50
2018-03-24T10:14:24.603Z,33.07
2018-03-24T10:16:50.837Z,34.00
2018-03-24T10:19:17.029Z,31.80
2018-03-24T10:24:42.829Z,32.23
2018-03-24T10:27:09.052Z,27.57
2018-03-24T10:29:35.241Z,28.47
2018-03-24T10:32:02.204Z,33.50
2018-03-24T10:34:29.136Z,30.77
2018-03-24T10:36:56.099Z,29.33
2018-03-24T10:39:22.296Z,34.90
2018-03-24T10:41:48.561Z,29.17
2018-03-24T10:44:14.754Z,30.60
2018-03-24T10:46:40.958Z,33.37
2018-03-24T10:49:07.176Z,40.73
2018-03-24T10:51:33.448Z,45.93
2018-03-24T10:53:59.668Z,39.03
2018-03-24T10:56:25.860Z,42.03
2018-03-24T10:58:52.072Z,35.20
2018-03-24T11:01:25.252Z,38.60
2018-03-24T11:03:51.511Z,25.83
2018-03-24T11:06:17.732Z,41.77
2018-03-24T11:08:43.948Z,39.03
2018-03-24T11:11:10.204Z,43.47
2018-03-24T11:13:36.425Z,42.00
2018-03-24T11:16:02.680Z,48.10
2018-03-24T11:18:28.904Z,34.53
2018-03-24T11:20:55.124Z,31.77
2018-03-24T11:23:21.341Z,22.93
2018-03-24T11:25:47.528Z,27.30
2018-03-24T11:28:14.479Z,26.30
2018-03-24T11:30:41.409Z,28.13
2018-03-24T11:33:08.372Z,28.97
2018-03-24T11:35:35.300Z,24.60
2018-03-24T11:38:01.545Z,26.03
2018-03-24T11:40:28.788Z,30.03
2018-03-24T11:42:55.729Z,30.53
2018-03-24T11:45:22.701Z,29.67
2018-03-24T11:47:48.897Z,27.40
2018-03-24T11:50:15.196Z,25.03
2018-03-24T11:52:41.389Z,26.50
2018-03-24T11:55:07.621Z,24.37
2018-03-24T11:57:33.807Z,34.07
2018-03-24T12:00:07.732Z,26.87
2018-03-24T12:02:33.931Z,27.17
2018-03-24T12:05:00.144Z,28.50
2018-03-24T12:07:26.398Z,29.10
2018-03-24T12:09:52.608Z,34.83
2018-03-24T12:12:18.817Z,24.33
2018-03-24T12:14:45.008Z,28.13
2018-03-24T12:17:11.964Z,30.77
2018-03-24T12:19:38.903Z,30.50
2018-03-24T12:22:05.888Z,28.63
2018-03-24T12:24:32.085Z,28.53
2018-03-24T12:26:59.044Z,33.23
2018-03-24T12:29:25.232Z,31.17
2018-03-24T12:31:51.450Z,33.40
2018-03-24T12:34:17.640Z,31.17
2018-03-24T12:36:44.074Z,27.10
2018-03-24T12:39:10.270Z,25.40
2018-03-24T12:41:37.236Z,24.73
2018-03-24T12:44:03.428Z,23.00
2018-03-24T12:46:29.649Z,24.63
2018-03-24T12:48:55.845Z,24.63
2018-03-24T12:51:22.083Z,25.50
2018-03-24T12:53:48.367Z,21.30
2018-03-24T12:56:15.313Z,23.27
2018-03-24T12:58:42.288Z,24.80
2018-03-24T13:01:08.482Z,23.37
2018-03-24T13:03:35.446Z,24.70
2018-03-24T13:06:08.669Z,26.37
2018-03-24T13:08:34.896Z,27.60
2018-03-24T13:11:01.089Z,24.10
2018-03-24T13:13:28.050Z,27.83
2018-03-24T13:15:54.240Z,22.50
2018-03-24T13:18:20.461Z,28.47
2018-03-24T13:20:46.653Z,23.07
2018-03-24T13:23:12.911Z,26.80
2018-03-24T13:25:39.117Z,24.80
2018-03-24T13:28:05.309Z,26.90
2018-03-24T13:30:32.268Z,26.43
2018-03-24T13:32:58.461Z,27.93
2018-03-24T13:35:24.689Z,19.20
2018-03-24T13:37:50.881Z,21.63
2018-03-24T13:40:17.104Z,25.63
2018-03-24T13:42:43.378Z,24.20
2018-03-24T13:45:09.601Z,26.47
2018-03-24T13:47:35.800Z,23.50
2018-03-24T13:50:09.008Z,26.83
2018-03-24T13:52:35.205Z,29.40
2018-03-24T13:55:01.421Z,25.67
2018-03-24T13:57:27.616Z,27.33
2018-03-24T13:59:53.828Z,26.40
2018-03-24T14:02:20.018Z,25.37
2018-03-24T14:04:46.241Z,23.67
2018-03-24T14:07:12.428Z,25.90
2018-03-24T14:09:38.644Z,27.00
2018-03-24T14:12:04.828Z,26.00
2018-03-24T14:14:31.060Z,26.93
2018-03-24T14:16:57.256Z,25.40
2018-03-24T14:19:24.212Z,23.43
2018-03-24T14:21:51.168Z,24.87
2018-03-24T14:24:17.387Z,27.67
2018-03-24T14:26:44.319Z,43.10
2018-03-24T14:29:11.272Z,35.20
2018-03-24T14:31:38.200Z,32.67
2018-03-24T14:34:04.725Z,36.33
2018-03-24T14:36:30.921Z,31.60
2018-03-24T14:38:57.108Z,27.20
2018-03-24T14:41:24.088Z,28.43
2018-03-24T14:43:50.280Z,28.17
2018-03-24T14:46:17.241Z,25.30
2018-03-24T14:48:44.205Z,27.90
2018-03-24T14:51:10.436Z,27.00
2018-03-24T14:53:36.634Z,25.33
2018-03-24T14:56:03.629Z,26.87
2018-03-24T14:58:29.821Z,29.67
2018-03-24T15:00:56.784Z,25.20
2018-03-24T15:03:22.981Z,23.17
2018-03-24T15:05:49.976Z,27.93
2018-03-24T15:08:16.168Z,22.57
2018-03-24T15:10:43.105Z,25.13
2018-03-24T15:13:10.129Z,21.20
2018-03-24T15:15:36.337Z,24.70
2018-03-24T15:18:02.557Z,25.87
2018-03-24T15:20:28.740Z,24.23
2018-03-24T15:22:55.739Z,20.63
2018-03-24T15:25:21.928Z,22.23
2018-03-24T15:27:48.157Z,19.27
2018-03-24T15:30:27.477Z,27.60
2018-03-24T15:33:06.934Z,22.77
2018-03-24T15:35:33.167Z,21.53
2018-03-24T15:37:59.384Z,23.80
2018-03-24T15:40:26.348Z,23.27
2018-03-24T15:42:52.573Z,22.70
2018-03-24T15:45:18.772Z,22.60
2018-03-24T15:47:44.997Z,24.43
2018-03-24T15:50:11.200Z,24.13
2018-03-24T15:52:37.398Z,23.57
2018-03-24T15:55:03.621Z,25.53
2018-03-24T15:57:29.821Z,20.97
2018-03-24T15:59:56.793Z,24.70
2018-03-24T16:02:23.020Z,24.67
2018-03-24T16:04:49.241Z,22.53
2018-03-24T16:07:16.195Z,21.30
2018-03-24T16:09:42.418Z,24.30
2018-03-24T16:12:09.374Z,29.80
2018-03-24T16:14:35.592Z,29.90
2018-03-24T16:17:02.533Z,28.67
2018-03-24T16:19:29.493Z,23.00
2018-03-24T16:21:55.704Z,24.00
2018-03-24T16:24:22.664Z,21.20
2018-03-24T16:26:55.948Z,23.60
2018-03-24T16:29:22.904Z,23.83
2018-03-24T16:31:49.092Z,24.87
2018-03-24T16:34:15.309Z,22.63
2018-03-24T16:36:41.510Z,21.73
2018-03-24T16:39:07.723Z,28.50
2018-03-24T16:41:33.928Z,26.30
2018-03-24T16:44:00.908Z,26.70
2018-03-24T16:46:27.105Z,22.13
2018-03-24T16:48:54.049Z,22.33
2018-03-24T16:51:21.031Z,26.57
2018-03-24T16:53:47.243Z,20.90
2018-03-24T16:56:14.185Z,18.50
2018-03-24T16:58:41.129Z,21.17
2018-03-24T17:01:08.085Z,28.43
2018-03-24T17:03:34.285Z,17.00
2018-03-24T17:06:00.495Z,20.40
2018-03-24T17:08:26.693Z,19.03
2018-03-24T17:10:52.912Z,22.87
2018-03-24T17:13:19.104Z,18.90
2018-03-24T17:15:46.056Z,24.67
2018-03-24T17:18:12.990Z,20.93
2018-03-24T17:20:39.266Z,20.70
2018-03-24T17:23:05.476Z,22.77
2018-03-24T17:25:31.753Z,23.93
2018-03-24T17:27:58.003Z,17.97
2018-03-24T17:30:24.209Z,20.40
2018-03-24T17:32:50.404Z,25.07
2018-03-24T17:35:16.612Z,21.43
2018-03-24T17:37:43.559Z,21.33
2018-03-24T17:40:10.523Z,17.63
2018-03-24T17:42:36.725Z,20.40
2018-03-24T17:45:03.690Z,22.97
2018-03-24T17:47:29.888Z,17.83
2018-03-24T17:50:03.726Z,20.83
2018-03-24T17:52:29.939Z,21.63
2018-03-24T17:54:56.900Z,15.83
2018-03-24T17:57:23.104Z,22.63
2018-03-24T17:59:50.076Z,20.17
2018-03-24T18:02:16.283Z,23.70
2018-03-24T18:04:43.223Z,24.47
2018-03-24T18:07:09.449Z,29.23
2018-03-24T18:09:35.701Z,41.67
2018-03-24T18:12:02.640Z,38.93
2018-03-24T18:14:29.600Z,43.03
2018-03-24T18:16:55.793Z,35.47
2018-03-24T18:19:22.008Z,42.80
2018-03-24T18:21:48.252Z,39.20
2018-03-24T18:24:14.492Z,29.50
2018-03-24T18:26:40.691Z,36.10
2018-03-24T18:29:06.904Z,41.70
2018-03-24T18:31:33.100Z,39.53
2018-03-24T18:33:59.331Z,38.70
2018-03-24T18:36:25.532Z,37.13
2018-03-24T18:38:51.721Z,38.93
2018-03-24T18:41:17.958Z,38.73
2018-03-24T18:43:44.149Z,39.70
2018-03-24T18:46:10.372Z,29.80
2018-03-24T18:48:37.301Z,32.47
2018-03-24T18:51:04.256Z,36.80
2018-03-24T18:53:31.221Z,33.10
2018-03-24T18:55:57.445Z,32.27
2018-03-24T18:58:23.696Z,32.33
2018-03-24T19:00:49.920Z,40.47
2018-03-24T19:03:16.116Z,33.97
2018-03-24T19:05:43.085Z,40.03
2018-03-24T19:08:09.333Z,28.30
2018-03-24T19:10:35.528Z,33.50
2018-03-24T19:13:02.456Z,25.77
2018-03-24T19:15:29.416Z,29.63
2018-03-24T19:17:56.345Z,30.13
2018-03-24T19:20:22.556Z,30.40
2018-03-24T19:22:48.776Z,30.60
2018-03-24T19:25:15.005Z,32.20
2018-03-24T19:27:41.205Z,31.53
2018-03-24T19:30:07.425Z,29.57
2018-03-24T19:32:33.620Z,37.07
2018-03-24T19:34:59.849Z,25.27
2018-03-24T19:37:26.058Z,32.47
2018-03-24T19:39:52.277Z,27.87
2018-03-24T19:42:18.481Z,26.07
2018-03-24T19:44:44.673Z,25.60
2018-03-24T19:47:11.633Z,36.60
2018-03-24T19:49:37.853Z,27.20
2018-03-24T19:52:04.793Z,29.17
2018-03-24T19:54:31.753Z,29.73
2018-03-24T19:56:57.953Z,31.23
2018-03-24T19:59:24.200Z,27.00
2018-03-24T20:01:51.131Z,26.87
2018-03-24T20:04:17.340Z,32.30
2018-03-24T20:06:43.849Z,33.40
2018-03-24T20:09:10.028Z,32.70
2018-03-24T20:11:36.988Z,30.23
2018-03-24T20:14:03.921Z,29.95
2018-03-24T20:16:30.955Z,28.07
2018-03-24T20:18:57.137Z,25.30
2018-03-24T20:21:23.331Z,28.13
2018-03-24T20:23:50.305Z,32.30
2018-03-24T20:26:16.497Z,24.03
2018-03-24T20:28:43.452Z,32.53
2018-03-24T20:31:10.394Z,34.87
2018-03-24T20:33:37.362Z,26.17
2018-03-24T20:36:03.560Z,27.17
2018-03-24T20:38:29.777Z,32.97
2018-03-24T20:40:55.972Z,33.30
2018-03-24T20:43:22.189Z,26.57
2018-03-24T20:45:48.425Z,27.13
2018-03-24T20:48:14.639Z,34.00
2018-03-24T20:50:40.832Z,39.53
2018-03-24T20:53:07.053Z,37.67
2018-03-24T20:55:33.244Z,32.57
2018-03-24T20:57:59.460Z,36.60
2018-03-24T21:00:25.681Z,38.57
2018-03-24T21:02:51.887Z,30.70
2018-03-24T21:05:18.820Z,35.93
2018-03-24T21:07:45.104Z,38.83
2018-03-24T21:10:12.020Z,34.00
2018-03-24T21:12:38.216Z,33.27
2018-03-24T21:15:05.243Z,40.43
2018-03-24T21:17:31.440Z,37.63
2018-03-24T21:19:57.680Z,37.27
2018-03-24T21:22:23.896Z,38.40
2018-03-24T21:24:50.087Z,37.90
2018-03-24T21:27:16.306Z,34.37
2018-03-24T21:29:42.547Z,31.47
2018-03-24T21:32:08.777Z,33.13
2018-03-24T21:34:34.987Z,44.60
2018-03-24T21:37:01.196Z,35.57
2018-03-24T21:39:27.393Z,38.73
2018-03-24T21:41:53.608Z,48.53
2018-03-24T21:44:20.553Z,37.77
2018-03-24T21:46:47.513Z,38.47
2018-03-24T21:49:13.725Z,40.87
2018-03-24T21:51:40.688Z,36.47
2018-03-24T21:54:06.884Z,41.73
2018-03-24T21:56:33.190Z,37.13
2018-03-24T21:58:59.399Z,38.33
2018-03-24T22:01:25.617Z,48.97
2018-03-24T22:03:51.804Z,46.60
2018-03-24T22:06:18.028Z,44.70
2018-03-24T22:08:44.232Z,55.97
2018-03-24T22:11:10.448Z,49.90
2018-03-24T22:13:36.644Z,58.17
2018-03-24T22:16:02.926Z,60.60
2018-03-24T22:18:29.211Z,63.00
2018-03-24T22:20:56.138Z,60.97
2018-03-24T22:23:23.104Z,59.03
2018-03-24T22:25:49.372Z,59.90
2018-03-24T22:28:15.569Z,68.70
2018-03-24T22:30:41.801Z,64.57
2018-03-24T22:33:08.016Z,58.70
2018-03-24T22:35:34.201Z,69.73
2018-03-24T22:38:00.432Z,68.63
2018-03-24T22:40:26.624Z,70.57
2018-03-24T22:42:52.850Z,67.30
2018-03-24T22:45:19.069Z,65.23
2018-03-24T22:47:45.297Z,62.33
2018-03-24T22:50:11.485Z,59.80
2018-03-24T22:52:37.705Z,59.57
2018-03-24T22:55:03.901Z,73.67
2018-03-24T22:57:30.132Z,58.73
2018-03-24T22:59:57.076Z,67.10
2018-03-24T23:02:23.301Z,63.30
2018-03-24T23:04:49.533Z,58.20
2018-03-24T23:07:15.747Z,65.40
2018-03-24T23:09:42.000Z,70.50
2018-03-24T23:12:08.227Z,63.40
2018-03-24T23:14:34.444Z,59.67
2018-03-24T23:17:00.702Z,69.67
2018-03-24T23:19:26.901Z,78.97
2018-03-24T23:21:53.103Z,70.60
2018-03-24T23:24:20.105Z,64.97
2018-03-24T23:26:46.333Z,56.77
2018-03-24T23:29:12.537Z,56.10
2018-03-24T23:31:38.729Z,61.17
2018-03-24T23:34:05.683Z,68.20
2018-03-24T23:36:32.632Z,67.30
2018-03-24T23:38:58.824Z,69.73
2018-03-24T23:41:25.801Z,71.33
2018-03-24T23:43:52.735Z,72.83
2018-03-24T23:46:19.852Z,63.50
2018-03-24T23:48:46.048Z,64.17
2018-03-24T23:51:12.249Z,61.17
2018-03-24T23:53:39.441Z,71.50
2018-03-24T23:56:05.788Z,80.07
2018-03-24T23:58:32.005Z,76.63
